sensor_id;sensor_type;location;lat;lon;timestamp;pressure;altitude;pressure_sealevel;temperature;humidity
73518;BME280;61766;60.318;25.044;2023-11-21T00:00:36;101643.88;;;2.19;36.68
73518;BME280;61766;60.318;25.044;2023-11-21T00:03:01;101648.34;;;2.22;36.58
73518;BME280;61766;60.318;25.044;2023-11-21T00:05:27;101648.03;;;2.38;36.35
73518;BME280;61766;60.318;25.044;2023-11-21T00:07:52;101647.80;;;2.20;36.19
73518;BME280;61766;60.318;25.044;2023-11-21T00:10:18;101652.09;;;2.07;35.99
73518;BME280;61766;60.318;25.044;2023-11-21T00:12:43;101652.52;;;2.26;36.16
73518;BME280;61766;60.318;25.044;2023-11-21T00:15:09;101653.41;;;1.90;36.50
73518;BME280;61766;60.318;25.044;2023-11-21T00:17:33;101657.13;;;1.20;36.76
73518;BME280;61766;60.318;25.044;2023-11-21T00:19:58;101660.70;;;1.22;36.89
73518;BME280;61766;60.318;25.044;2023-11-21T00:22:24;101657.74;;;1.65;36.33
73518;BME280;61766;60.318;25.044;2023-11-21T00:24:49;101659.99;;;1.45;36.46
73518;BME280;61766;60.318;25.044;2023-11-21T00:27:14;101666.50;;;1.28;36.56
73518;BME280;61766;60.318;25.044;2023-11-21T00:29:40;101668.84;;;1.52;36.27
73518;BME280;61766;60.318;25.044;2023-11-21T00:32:07;101668.07;;;1.67;36.06
73518;BME280;61766;60.318;25.044;2023-11-21T00:34:30;101672.20;;;1.53;36.14
73518;BME280;61766;60.318;25.044;2023-11-21T00:36:55;101672.00;;;1.50;36.10
73518;BME280;61766;60.318;25.044;2023-11-21T00:39:21;101672.33;;;1.75;35.88
73518;BME280;61766;60.318;25.044;2023-11-21T00:41:46;101665.67;;;1.45;35.59
73518;BME280;61766;60.318;25.044;2023-11-21T00:44:11;101664.13;;;1.89;35.53
73518;BME280;61766;60.318;25.044;2023-11-21T00:46:36;101669.44;;;1.89;35.46
73518;BME280;61766;60.318;25.044;2023-11-21T00:49:02;101669.68;;;1.87;35.32
73518;BME280;61766;60.318;25.044;2023-11-21T00:51:27;101673.11;;;1.51;35.67
73518;BME280;61766;60.318;25.044;2023-11-21T00:53:52;101677.00;;;1.59;35.82
73518;BME280;61766;60.318;25.044;2023-11-21T00:56:18;101678.09;;;1.22;35.95
73518;BME280;61766;60.318;25.044;2023-11-21T00:58:43;101679.85;;;1.28;35.76
73518;BME280;61766;60.318;25.044;2023-11-21T01:01:08;101678.65;;;1.28;36.14
73518;BME280;61766;60.318;25.044;2023-11-21T01:03:34;101682.71;;;1.41;36.04
73518;BME280;61766;60.318;25.044;2023-11-21T01:05:59;101679.62;;;1.12;36.01
73518;BME280;61766;60.318;25.044;2023-11-21T01:08:25;101679.81;;;1.63;35.92
73518;BME280;61766;60.318;25.044;2023-11-21T01:10:50;101682.99;;;1.38;35.90
73518;BME280;61766;60.318;25.044;2023-11-21T01:13:15;101681.64;;;1.20;35.85
73518;BME280;61766;60.318;25.044;2023-11-21T01:15:41;101682.79;;;1.42;35.72
73518;BME280;61766;60.318;25.044;2023-11-21T01:18:06;101683.45;;;1.19;35.81
73518;BME280;61766;60.318;25.044;2023-11-21T01:20:31;101687.52;;;1.51;35.65
73518;BME280;61766;60.318;25.044;2023-11-21T01:22:57;101687.85;;;1.07;35.78
73518;BME280;61766;60.318;25.044;2023-11-21T01:25:22;101685.74;;;1.50;35.95
73518;BME280;61766;60.318;25.044;2023-11-21T01:27:47;101685.80;;;1.18;36.06
73518;BME280;61766;60.318;25.044;2023-11-21T01:30:13;101686.63;;;1.10;35.98
73518;BME280;61766;60.318;25.044;2023-11-21T01:32:38;101688.83;;;0.91;36.06
73518;BME280;61766;60.318;25.044;2023-11-21T01:35:04;101686.19;;;1.22;36.23
73518;BME280;61766;60.318;25.044;2023-11-21T01:37:28;101691.58;;;1.29;36.15
73518;BME280;61766;60.318;25.044;2023-11-21T01:39:54;101694.03;;;1.08;36.05
73518;BME280;61766;60.318;25.044;2023-11-21T01:42:19;101692.08;;;0.98;36.04
73518;BME280;61766;60.318;25.044;2023-11-21T01:44:44;101693.29;;;0.64;36.50
73518;BME280;61766;60.318;25.044;2023-11-21T01:47:10;101690.46;;;0.76;36.42
73518;BME280;61766;60.318;25.044;2023-11-21T01:49:35;101694.43;;;0.76;36.68
73518;BME280;61766;60.318;25.044;2023-11-21T01:52:01;101691.27;;;0.42;36.94
73518;BME280;61766;60.318;25.044;2023-11-21T01:54:26;101690.89;;;0.62;37.04
73518;BME280;61766;60.318;25.044;2023-11-21T01:56:51;101691.03;;;0.14;37.81
73518;BME280;61766;60.318;25.044;2023-11-21T01:59:20;101694.25;;;-0.01;38.30
73518;BME280;61766;60.318;25.044;2023-11-21T02:01:41;101694.87;;;-0.26;39.07
73518;BME280;61766;60.318;25.044;2023-11-21T02:04:07;101695.91;;;-0.62;39.67
73518;BME280;61766;60.318;25.044;2023-11-21T02:06:32;101691.93;;;-0.56;39.91
73518;BME280;61766;60.318;25.044;2023-11-21T02:08:58;101692.89;;;0.27;39.57
73518;BME280;61766;60.318;25.044;2023-11-21T02:11:23;101690.14;;;-0.44;40.24
73518;BME280;61766;60.318;25.044;2023-11-21T02:13:48;101688.55;;;0.34;40.05
73518;BME280;61766;60.318;25.044;2023-11-21T02:16:14;101683.89;;;0.15;39.74
73518;BME280;61766;60.318;25.044;2023-11-21T02:18:39;101683.48;;;0.37;39.47
73518;BME280;61766;60.318;25.044;2023-11-21T02:21:05;101689.49;;;-0.25;41.11
73518;BME280;61766;60.318;25.044;2023-11-21T02:23:30;101694.05;;;0.01;40.58
73518;BME280;61766;60.318;25.044;2023-11-21T02:25:55;101697.39;;;0.01;40.41
73518;BME280;61766;60.318;25.044;2023-11-21T02:28:21;101695.07;;;0.44;40.01
73518;BME280;61766;60.318;25.044;2023-11-21T02:30:46;101697.73;;;0.39;40.14
73518;BME280;61766;60.318;25.044;2023-11-21T02:33:11;101699.15;;;0.34;40.44
73518;BME280;61766;60.318;25.044;2023-11-21T02:35:37;101701.84;;;0.43;40.40
73518;BME280;61766;60.318;25.044;2023-11-21T02:38:02;101709.92;;;0.62;40.34
73518;BME280;61766;60.318;25.044;2023-11-21T02:40:27;101718.75;;;0.94;39.97
73518;BME280;61766;60.318;25.044;2023-11-21T02:42:53;101719.02;;;0.83;40.39
73518;BME280;61766;60.318;25.044;2023-11-21T02:45:19;101718.36;;;0.77;40.48
73518;BME280;61766;60.318;25.044;2023-11-21T02:47:43;101724.50;;;0.60;40.17
73518;BME280;61766;60.318;25.044;2023-11-21T02:50:09;101719.93;;;0.57;40.60
73518;BME280;61766;60.318;25.044;2023-11-21T02:52:34;101720.54;;;1.00;40.22
73518;BME280;61766;60.318;25.044;2023-11-21T02:55:00;101721.01;;;0.99;40.46
73518;BME280;61766;60.318;25.044;2023-11-21T02:57:25;101721.04;;;0.34;40.98
73518;BME280;61766;60.318;25.044;2023-11-21T02:59:51;101721.13;;;1.08;40.66
73518;BME280;61766;60.318;25.044;2023-11-21T03:02:16;101722.30;;;0.94;40.60
73518;BME280;61766;60.318;25.044;2023-11-21T03:04:41;101721.32;;;1.04;40.56
73518;BME280;61766;60.318;25.044;2023-11-21T03:07:07;101723.19;;;0.91;40.59
73518;BME280;61766;60.318;25.044;2023-11-21T03:09:32;101723.51;;;0.69;40.73
73518;BME280;61766;60.318;25.044;2023-11-21T03:11:57;101728.59;;;1.42;40.57
73518;BME280;61766;60.318;25.044;2023-11-21T03:14:23;101730.76;;;1.21;40.29
73518;BME280;61766;60.318;25.044;2023-11-21T03:16:49;101728.23;;;1.42;40.25
73518;BME280;61766;60.318;25.044;2023-11-21T03:19:14;101728.84;;;1.07;40.55
73518;BME280;61766;60.318;25.044;2023-11-21T03:21:40;101728.63;;;1.34;40.27
73518;BME280;61766;60.318;25.044;2023-11-21T03:24:06;101731.32;;;1.43;40.18
73518;BME280;61766;60.318;25.044;2023-11-21T03:26:30;101731.97;;;1.50;40.28
73518;BME280;61766;60.318;25.044;2023-11-21T03:28:55;101733.74;;;1.63;40.19
73518;BME280;61766;60.318;25.044;2023-11-21T03:31:21;101735.45;;;1.74;40.06
73518;BME280;61766;60.318;25.044;2023-11-21T03:33:47;101736.82;;;1.59;40.30
73518;BME280;61766;60.318;25.044;2023-11-21T03:36:13;101739.31;;;1.69;40.18
73518;BME280;61766;60.318;25.044;2023-11-21T03:38:38;101742.72;;;1.84;40.18
73518;BME280;61766;60.318;25.044;2023-11-21T03:41:05;101745.16;;;1.87;40.12
73518;BME280;61766;60.318;25.044;2023-11-21T03:43:29;101744.36;;;1.95;40.10
73518;BME280;61766;60.318;25.044;2023-11-21T03:45:55;101748.75;;;2.00;40.01
73518;BME280;61766;60.318;25.044;2023-11-21T03:48:20;101752.91;;;2.00;40.34
73518;BME280;61766;60.318;25.044;2023-11-21T03:50:45;101750.27;;;1.65;40.43
73518;BME280;61766;60.318;25.044;2023-11-21T03:53:11;101750.06;;;1.85;40.52
73518;BME280;61766;60.318;25.044;2023-11-21T03:55:36;101753.37;;;1.52;41.15
73518;BME280;61766;60.318;25.044;2023-11-21T03:58:02;101750.22;;;1.45;41.17
73518;BME280;61766;60.318;25.044;2023-11-21T04:00:28;101752.99;;;1.29;41.23
73518;BME280;61766;60.318;25.044;2023-11-21T04:02:53;101755.72;;;1.45;41.32
73518;BME280;61766;60.318;25.044;2023-11-21T04:05:19;101756.16;;;1.44;41.52
73518;BME280;61766;60.318;25.044;2023-11-21T04:07:43;101760.04;;;1.39;41.69
73518;BME280;61766;60.318;25.044;2023-11-21T04:10:09;101761.98;;;1.51;41.41
73518;BME280;61766;60.318;25.044;2023-11-21T04:12:34;101762.69;;;1.83;41.43
73518;BME280;61766;60.318;25.044;2023-11-21T04:15:00;101768.61;;;1.75;41.17
73518;BME280;61766;60.318;25.044;2023-11-21T04:17:25;101772.64;;;1.86;41.17
73518;BME280;61766;60.318;25.044;2023-11-21T04:19:51;101777.28;;;1.70;41.26
73518;BME280;61766;60.318;25.044;2023-11-21T04:22:16;101782.05;;;1.35;41.92
73518;BME280;61766;60.318;25.044;2023-11-21T04:24:42;101788.49;;;1.36;41.84
73518;BME280;61766;60.318;25.044;2023-11-21T04:27:07;101789.62;;;1.50;41.71
73518;BME280;61766;60.318;25.044;2023-11-21T04:29:32;101793.26;;;1.63;41.59
73518;BME280;61766;60.318;25.044;2023-11-21T04:31:58;101799.27;;;1.74;41.48
73518;BME280;61766;60.318;25.044;2023-11-21T04:34:24;101797.81;;;1.83;41.36
73518;BME280;61766;60.318;25.044;2023-11-21T04:36:49;101805.86;;;1.81;41.01
73518;BME280;61766;60.318;25.044;2023-11-21T04:39:13;101805.42;;;1.64;41.38
73518;BME280;61766;60.318;25.044;2023-11-21T04:41:39;101808.73;;;1.54;41.65
73518;BME280;61766;60.318;25.044;2023-11-21T04:44:05;101811.14;;;1.49;41.67
73518;BME280;61766;60.318;25.044;2023-11-21T04:46:30;101813.65;;;1.61;41.83
73518;BME280;61766;60.318;25.044;2023-11-21T04:48:55;101808.24;;;1.36;42.18
73518;BME280;61766;60.318;25.044;2023-11-21T04:51:21;101812.83;;;1.43;42.04
73518;BME280;61766;60.318;25.044;2023-11-21T04:53:46;101816.93;;;1.17;42.03
73518;BME280;61766;60.318;25.044;2023-11-21T04:56:11;101818.73;;;1.55;42.07
73518;BME280;61766;60.318;25.044;2023-11-21T04:58:37;101822.32;;;1.47;41.78
73518;BME280;61766;60.318;25.044;2023-11-21T05:01:02;101824.51;;;1.60;41.87
73518;BME280;61766;60.318;25.044;2023-11-21T05:03:28;101825.72;;;1.52;41.78
73518;BME280;61766;60.318;25.044;2023-11-21T05:05:54;101826.66;;;1.37;42.25
73518;BME280;61766;60.318;25.044;2023-11-21T05:08:19;101833.35;;;1.31;42.73
73518;BME280;61766;60.318;25.044;2023-11-21T05:10:44;101833.20;;;1.39;42.64
73518;BME280;61766;60.318;25.044;2023-11-21T05:13:10;101838.42;;;1.09;43.03
73518;BME280;61766;60.318;25.044;2023-11-21T05:15:35;101841.05;;;0.99;43.29
73518;BME280;61766;60.318;25.044;2023-11-21T05:18:00;101846.18;;;1.06;43.18
73518;BME280;61766;60.318;25.044;2023-11-21T05:20:25;101848.81;;;1.03;42.87
73518;BME280;61766;60.318;25.044;2023-11-21T05:22:51;101853.92;;;0.81;43.10
73518;BME280;61766;60.318;25.044;2023-11-21T05:25:16;101857.22;;;1.15;43.13
73518;BME280;61766;60.318;25.044;2023-11-21T05:27:41;101861.63;;;1.08;42.93
73518;BME280;61766;60.318;25.044;2023-11-21T05:30:08;101863.63;;;1.16;42.87
73518;BME280;61766;60.318;25.044;2023-11-21T05:32:33;101867.13;;;0.97;42.94
73518;BME280;61766;60.318;25.044;2023-11-21T05:34:58;101870.14;;;0.98;42.92
73518;BME280;61766;60.318;25.044;2023-11-21T05:37:23;101873.25;;;0.79;43.29
73518;BME280;61766;60.318;25.044;2023-11-21T05:39:48;101880.07;;;0.75;43.33
73518;BME280;61766;60.318;25.044;2023-11-21T05:42:14;101885.02;;;1.10;42.85
73518;BME280;61766;60.318;25.044;2023-11-21T05:44:42;101886.92;;;1.13;42.57
73518;BME280;61766;60.318;25.044;2023-11-21T05:47:04;101891.80;;;0.82;42.78
73518;BME280;61766;60.318;25.044;2023-11-21T05:49:30;101895.55;;;0.83;42.98
73518;BME280;61766;60.318;25.044;2023-11-21T05:51:56;101897.01;;;0.56;43.29
73518;BME280;61766;60.318;25.044;2023-11-21T05:54:20;101896.20;;;0.71;42.95
73518;BME280;61766;60.318;25.044;2023-11-21T05:56:46;101898.74;;;0.71;42.91
73518;BME280;61766;60.318;25.044;2023-11-21T05:59:11;101899.89;;;0.61;42.97
73518;BME280;61766;60.318;25.044;2023-11-21T06:01:36;101905.48;;;0.72;42.73
73518;BME280;61766;60.318;25.044;2023-11-21T06:04:01;101907.97;;;0.42;43.28
73518;BME280;61766;60.318;25.044;2023-11-21T06:06:26;101912.11;;;0.68;42.91
73518;BME280;61766;60.318;25.044;2023-11-21T06:08:52;101916.64;;;0.87;42.72
73518;BME280;61766;60.318;25.044;2023-11-21T06:11:18;101914.13;;;0.73;42.67
73518;BME280;61766;60.318;25.044;2023-11-21T06:13:43;101916.51;;;0.64;42.88
73518;BME280;61766;60.318;25.044;2023-11-21T06:16:09;101919.88;;;0.83;42.66
73518;BME280;61766;60.318;25.044;2023-11-21T06:18:34;101923.01;;;0.81;42.56
73518;BME280;61766;60.318;25.044;2023-11-21T06:20:59;101929.10;;;0.63;42.81
73518;BME280;61766;60.318;25.044;2023-11-21T06:23:25;101929.28;;;0.71;42.71
73518;BME280;61766;60.318;25.044;2023-11-21T06:25:50;101933.37;;;0.44;42.84
73518;BME280;61766;60.318;25.044;2023-11-21T06:28:15;101933.86;;;0.67;42.50
73518;BME280;61766;60.318;25.044;2023-11-21T06:30:41;101938.03;;;0.78;42.52
73518;BME280;61766;60.318;25.044;2023-11-21T06:33:07;101936.67;;;0.22;43.00
73518;BME280;61766;60.318;25.044;2023-11-21T06:35:31;101945.86;;;0.57;43.07
73518;BME280;61766;60.318;25.044;2023-11-21T06:37:57;101953.27;;;-0.08;43.21
73518;BME280;61766;60.318;25.044;2023-11-21T06:40:22;101953.46;;;0.35;43.45
73518;BME280;61766;60.318;25.044;2023-11-21T06:42:47;101958.10;;;0.10;43.16
73518;BME280;61766;60.318;25.044;2023-11-21T06:45:13;101961.63;;;0.42;43.09
73518;BME280;61766;60.318;25.044;2023-11-21T06:47:38;101967.22;;;0.37;43.33
73518;BME280;61766;60.318;25.044;2023-11-21T06:50:04;101965.06;;;0.61;42.95
73518;BME280;61766;60.318;25.044;2023-11-21T06:52:28;101968.00;;;0.40;42.85
73518;BME280;61766;60.318;25.044;2023-11-21T06:54:53;101968.49;;;0.19;43.03
73518;BME280;61766;60.318;25.044;2023-11-21T06:57:20;101971.62;;;0.31;42.51
73518;BME280;61766;60.318;25.044;2023-11-21T06:59:45;101977.39;;;0.30;42.32
73518;BME280;61766;60.318;25.044;2023-11-21T07:02:10;101980.31;;;0.46;42.17
73518;BME280;61766;60.318;25.044;2023-11-21T07:04:36;101985.21;;;0.55;41.95
73518;BME280;61766;60.318;25.044;2023-11-21T07:07:01;101990.53;;;-0.13;42.45
73518;BME280;61766;60.318;25.044;2023-11-21T07:09:26;101993.21;;;0.27;42.30
73518;BME280;61766;60.318;25.044;2023-11-21T07:11:52;101992.67;;;0.37;42.02
73518;BME280;61766;60.318;25.044;2023-11-21T07:14:17;101997.70;;;0.74;41.87
73518;BME280;61766;60.318;25.044;2023-11-21T07:16:43;101995.51;;;0.77;41.74
73518;BME280;61766;60.318;25.044;2023-11-21T07:19:08;101995.67;;;-0.14;42.09
73518;BME280;61766;60.318;25.044;2023-11-21T07:21:33;102003.09;;;0.30;42.42
73518;BME280;61766;60.318;25.044;2023-11-21T07:23:58;102002.22;;;0.40;42.37
73518;BME280;61766;60.318;25.044;2023-11-21T07:26:24;102008.96;;;-0.22;42.76
73518;BME280;61766;60.318;25.044;2023-11-21T07:28:49;102008.95;;;-0.07;42.74
73518;BME280;61766;60.318;25.044;2023-11-21T07:31:16;102010.76;;;0.35;42.66
73518;BME280;61766;60.318;25.044;2023-11-21T07:33:41;102017.08;;;0.44;42.36
73518;BME280;61766;60.318;25.044;2023-11-21T07:36:07;102015.00;;;0.40;42.32
73518;BME280;61766;60.318;25.044;2023-11-21T07:38:31;102016.82;;;0.19;42.65
73518;BME280;61766;60.318;25.044;2023-11-21T07:40:57;102015.17;;;0.25;42.27
73518;BME280;61766;60.318;25.044;2023-11-21T07:43:22;102020.73;;;-0.26;42.88
73518;BME280;61766;60.318;25.044;2023-11-21T07:45:47;102027.56;;;0.00;42.57
73518;BME280;61766;60.318;25.044;2023-11-21T07:48:12;102035.22;;;-0.35;42.52
73518;BME280;61766;60.318;25.044;2023-11-21T07:50:38;102035.98;;;0.30;42.43
73518;BME280;61766;60.318;25.044;2023-11-21T07:53:04;102035.41;;;0.24;42.06
73518;BME280;61766;60.318;25.044;2023-11-21T07:55:29;102038.12;;;0.07;41.88
73518;BME280;61766;60.318;25.044;2023-11-21T07:57:54;102039.19;;;0.31;41.75
73518;BME280;61766;60.318;25.044;2023-11-21T08:00:20;102042.74;;;0.52;41.62
73518;BME280;61766;60.318;25.044;2023-11-21T08:02:45;102045.90;;;0.23;41.84
73518;BME280;61766;60.318;25.044;2023-11-21T08:05:10;102049.21;;;0.35;41.45
73518;BME280;61766;60.318;25.044;2023-11-21T08:07:36;102049.77;;;0.59;41.41
73518;BME280;61766;60.318;25.044;2023-11-21T08:10:02;102051.02;;;0.45;41.07
73518;BME280;61766;60.318;25.044;2023-11-21T08:12:27;102054.47;;;0.23;41.39
73518;BME280;61766;60.318;25.044;2023-11-21T08:14:52;102060.16;;;0.59;41.47
73518;BME280;61766;60.318;25.044;2023-11-21T08:17:17;102062.88;;;0.38;41.59
73518;BME280;61766;60.318;25.044;2023-11-21T08:19:43;102060.37;;;0.32;41.65
73518;BME280;61766;60.318;25.044;2023-11-21T08:22:08;102063.23;;;0.33;41.51
73518;BME280;61766;60.318;25.044;2023-11-21T08:24:33;102064.99;;;0.18;41.66
73518;BME280;61766;60.318;25.044;2023-11-21T08:26:59;102060.73;;;0.78;41.32
73518;BME280;61766;60.318;25.044;2023-11-21T08:29:25;102065.84;;;0.37;41.03
73518;BME280;61766;60.318;25.044;2023-11-21T08:31:50;102069.42;;;0.40;41.14
73518;BME280;61766;60.318;25.044;2023-11-21T08:34:15;102070.90;;;0.50;41.15
73518;BME280;61766;60.318;25.044;2023-11-21T08:36:42;102073.40;;;0.64;40.91
73518;BME280;61766;60.318;25.044;2023-11-21T08:39:06;102080.12;;;0.70;40.79
73518;BME280;61766;60.318;25.044;2023-11-21T08:41:31;102079.95;;;0.53;40.91
73518;BME280;61766;60.318;25.044;2023-11-21T08:43:57;102084.13;;;0.38;41.27
73518;BME280;61766;60.318;25.044;2023-11-21T08:46:22;102084.53;;;0.47;41.28
73518;BME280;61766;60.318;25.044;2023-11-21T08:48:47;102089.97;;;0.47;41.38
73518;BME280;61766;60.318;25.044;2023-11-21T08:51:12;102090.33;;;0.71;41.07
73518;BME280;61766;60.318;25.044;2023-11-21T08:53:38;102095.24;;;0.49;41.69
73518;BME280;61766;60.318;25.044;2023-11-21T08:56:04;102098.03;;;0.46;41.63
73518;BME280;61766;60.318;25.044;2023-11-21T08:58:28;102093.82;;;0.57;41.41
73518;BME280;61766;60.318;25.044;2023-11-21T09:00:54;102098.11;;;0.50;41.41
73518;BME280;61766;60.318;25.044;2023-11-21T09:03:20;102098.99;;;0.49;41.40
73518;BME280;61766;60.318;25.044;2023-11-21T09:05:46;102102.63;;;0.54;41.64
73518;BME280;61766;60.318;25.044;2023-11-21T09:08:11;102107.59;;;0.62;41.78
73518;BME280;61766;60.318;25.044;2023-11-21T09:10:37;102109.93;;;0.59;42.16
73518;BME280;61766;60.318;25.044;2023-11-21T09:13:02;102109.60;;;0.36;41.74
73518;BME280;61766;60.318;25.044;2023-11-21T09:15:28;102115.23;;;0.51;41.78
73518;BME280;61766;60.318;25.044;2023-11-21T09:17:53;102114.38;;;0.54;41.59
73518;BME280;61766;60.318;25.044;2023-11-21T09:20:18;102119.37;;;0.61;41.50
73518;BME280;61766;60.318;25.044;2023-11-21T09:22:43;102123.63;;;0.63;41.40
73518;BME280;61766;60.318;25.044;2023-11-21T09:25:09;102125.81;;;0.33;41.68
73518;BME280;61766;60.318;25.044;2023-11-21T09:27:34;102123.65;;;0.36;41.82
73518;BME280;61766;60.318;25.044;2023-11-21T09:30:00;102126.80;;;0.72;42.10
73518;BME280;61766;60.318;25.044;2023-11-21T09:32:25;102123.38;;;0.41;41.61
73518;BME280;61766;60.318;25.044;2023-11-21T09:34:51;102124.90;;;0.47;41.40
73518;BME280;61766;60.318;25.044;2023-11-21T09:37:17;102126.58;;;0.63;41.46
73518;BME280;61766;60.318;25.044;2023-11-21T09:39:43;102130.67;;;0.58;40.90
73518;BME280;61766;60.318;25.044;2023-11-21T09:42:11;102128.64;;;0.74;41.13
73518;BME280;61766;60.318;25.044;2023-11-21T09:44:36;102127.83;;;0.61;40.90
73518;BME280;61766;60.318;25.044;2023-11-21T09:47:00;102124.23;;;1.10;40.48
73518;BME280;61766;60.318;25.044;2023-11-21T09:49:26;102126.40;;;1.16;40.20
73518;BME280;61766;60.318;25.044;2023-11-21T09:51:50;102128.41;;;1.16;39.86
73518;BME280;61766;60.318;25.044;2023-11-21T09:54:15;102126.86;;;0.98;39.94
73518;BME280;61766;60.318;25.044;2023-11-21T09:56:40;102127.53;;;0.88;40.09
73518;BME280;61766;60.318;25.044;2023-11-21T09:59:06;102130.08;;;1.27;39.61
73518;BME280;61766;60.318;25.044;2023-11-21T10:01:31;102131.04;;;1.41;39.38
73518;BME280;61766;60.318;25.044;2023-11-21T10:03:56;102132.01;;;1.58;39.37
73518;BME280;61766;60.318;25.044;2023-11-21T10:06:21;102130.43;;;1.49;39.34
73518;BME280;61766;60.318;25.044;2023-11-21T10:08:47;102133.00;;;1.22;39.32
73518;BME280;61766;60.318;25.044;2023-11-21T10:11:14;102134.31;;;1.21;39.38
73518;BME280;61766;60.318;25.044;2023-11-21T10:13:39;102134.81;;;1.63;39.08
73518;BME280;61766;60.318;25.044;2023-11-21T10:16:04;102137.05;;;1.36;38.84
73518;BME280;61766;60.318;25.044;2023-11-21T10:18:29;102135.96;;;1.61;38.78
73518;BME280;61766;60.318;25.044;2023-11-21T10:20:54;102140.09;;;1.63;38.86
73518;BME280;61766;60.318;25.044;2023-11-21T10:23:19;102143.97;;;1.38;39.03
73518;BME280;61766;60.318;25.044;2023-11-21T10:25:44;102145.53;;;1.37;38.92
73518;BME280;61766;60.318;25.044;2023-11-21T10:28:10;102148.50;;;1.43;38.92
73518;BME280;61766;60.318;25.044;2023-11-21T10:30:36;102150.57;;;1.47;38.26
73518;BME280;61766;60.318;25.044;2023-11-21T10:33:01;102152.71;;;1.64;38.72
73518;BME280;61766;60.318;25.044;2023-11-21T10:35:40;102156.15;;;1.71;38.49
73518;BME280;61766;60.318;25.044;2023-11-21T10:37:59;102159.07;;;1.30;38.71
73518;BME280;61766;60.318;25.044;2023-11-21T10:40:17;102163.49;;;1.99;38.49
73518;BME280;61766;60.318;25.044;2023-11-21T10:42:42;102169.72;;;1.95;38.61
73518;BME280;61766;60.318;25.044;2023-11-21T10:45:09;102173.00;;;1.32;38.99
73518;BME280;61766;60.318;25.044;2023-11-21T10:47:33;102175.48;;;1.50;38.99
73518;BME280;61766;60.318;25.044;2023-11-21T10:50:00;102176.11;;;1.24;38.90
73518;BME280;61766;60.318;25.044;2023-11-21T10:52:27;102175.98;;;1.30;38.73
73518;BME280;61766;60.318;25.044;2023-11-21T10:54:49;102179.16;;;1.58;38.65
73518;BME280;61766;60.318;25.044;2023-11-21T10:57:18;102178.71;;;1.55;39.11
73518;BME280;61766;60.318;25.044;2023-11-21T10:59:40;102181.59;;;1.43;38.77
73518;BME280;61766;60.318;25.044;2023-11-21T11:02:12;102186.98;;;1.27;39.32
73518;BME280;61766;60.318;25.044;2023-11-21T11:04:31;102184.70;;;0.94;39.35
73518;BME280;61766;60.318;25.044;2023-11-21T11:06:57;102189.72;;;1.23;39.63
73518;BME280;61766;60.318;25.044;2023-11-21T11:09:21;102188.47;;;1.50;39.30
73518;BME280;61766;60.318;25.044;2023-11-21T11:11:46;102191.11;;;1.53;39.40
73518;BME280;61766;60.318;25.044;2023-11-21T11:14:12;102190.61;;;1.37;39.54
73518;BME280;61766;60.318;25.044;2023-11-21T11:16:37;102188.29;;;1.42;39.49
73518;BME280;61766;60.318;25.044;2023-11-21T11:19:02;102187.43;;;1.29;39.28
73518;BME280;61766;60.318;25.044;2023-11-21T11:21:37;102185.84;;;1.76;39.21
73518;BME280;61766;60.318;25.044;2023-11-21T11:24:08;102185.17;;;0.12;38.84
73518;BME280;61766;60.318;25.044;2023-11-21T11:26:28;102187.55;;;1.79;38.57
73518;BME280;61766;60.318;25.044;2023-11-21T11:28:48;102185.48;;;1.68;38.88
73518;BME280;61766;60.318;25.044;2023-11-21T11:31:21;102186.01;;;1.34;38.89
73518;BME280;61766;60.318;25.044;2023-11-21T11:33:39;102192.23;;;1.33;39.39
73518;BME280;61766;60.318;25.044;2023-11-21T11:36:05;102193.15;;;1.02;39.70
73518;BME280;61766;60.318;25.044;2023-11-21T11:38:31;102193.12;;;1.41;39.49
73518;BME280;61766;60.318;25.044;2023-11-21T11:40:53;102196.08;;;1.47;39.41
73518;BME280;61766;60.318;25.044;2023-11-21T11:43:24;102198.36;;;1.30;39.27
73518;BME280;61766;60.318;25.044;2023-11-21T11:45:42;102201.87;;;1.03;39.10
73518;BME280;61766;60.318;25.044;2023-11-21T11:48:07;102206.35;;;1.40;39.05
73518;BME280;61766;60.318;25.044;2023-11-21T11:50:32;102212.02;;;1.17;39.34
73518;BME280;61766;60.318;25.044;2023-11-21T11:55:24;102210.43;;;1.55;38.81
73518;BME280;61766;60.318;25.044;2023-11-21T11:57:49;102214.89;;;1.47;38.55
73518;BME280;61766;60.318;25.044;2023-11-21T12:00:16;102220.94;;;1.26;38.94
73518;BME280;61766;60.318;25.044;2023-11-21T12:02:39;102222.36;;;1.55;38.76
73518;BME280;61766;60.318;25.044;2023-11-21T12:05:09;102225.47;;;1.29;38.76
73518;BME280;61766;60.318;25.044;2023-11-21T12:07:43;102232.39;;;1.75;38.61
73518;BME280;61766;60.318;25.044;2023-11-21T12:09:55;102237.79;;;1.67;38.63
73518;BME280;61766;60.318;25.044;2023-11-21T12:12:22;102241.02;;;1.12;38.86
73518;BME280;61766;60.318;25.044;2023-11-21T12:14:46;102240.29;;;1.21;38.93
73518;BME280;61766;60.318;25.044;2023-11-21T12:17:11;102247.05;;;0.27;40.39
73518;BME280;61766;60.318;25.044;2023-11-21T12:19:36;102248.41;;;0.92;39.54
73518;BME280;61766;60.318;25.044;2023-11-21T12:22:02;102253.26;;;0.74;39.72
73518;BME280;61766;60.318;25.044;2023-11-21T12:24:27;102259.52;;;0.79;39.62
73518;BME280;61766;60.318;25.044;2023-11-21T12:26:52;102260.68;;;1.12;39.33
73518;BME280;61766;60.318;25.044;2023-11-21T12:29:17;102262.43;;;1.10;39.13
73518;BME280;61766;60.318;25.044;2023-11-21T12:31:43;102269.71;;;1.12;39.01
73518;BME280;61766;60.318;25.044;2023-11-21T12:34:08;102273.28;;;0.91;39.04
73518;BME280;61766;60.318;25.044;2023-11-21T12:36:34;102274.81;;;1.05;38.68
73518;BME280;61766;60.318;25.044;2023-11-21T12:38:58;102276.98;;;0.85;38.83
73518;BME280;61766;60.318;25.044;2023-11-21T12:41:24;102277.28;;;0.83;38.87